Terminal Aerodrome Forecast
Issued by NWS Pueblo, CO

Home | Current Version | Previous Version | Text Only | Print | Product List | Glossary On
Versions: 1 2 3 4 5 6 7 8 9 10 11 12 13 14 15 16 17 18 19 20 21 22 23 24 25 26 27 28 29 30 31 32 33 34 35 36 37 38 39 40 41 42 43 44 45
000
FTUS45 KPUB 270525
TAFCOS
TAF
KCOS 270525Z 2706/2806 15012KT 3/4SM -SN BR SCT006 OVC012
     FM270900 15010KT 2SM -SN BR SCT007 OVC010
     FM271200 16012KT 5SM -SHSN BR OVC007
     FM271800 17014KT 6SM BR SCT007 BKN015
     FM272300 13007KT P6SM VCSH SCT010 BKN020=

USA.gov is the U.S. government's official web portal to all federal, state and local government web resources and services.